Pagina principală
METAR-TAF:

METAR-TAF

Aeroporturi :

Malakula, Vanuatu

Latitudine: 16-27-26S, longitudine: 167-49-42E, elevație: 2 m

METAR: lipsă

Ora: 20:22 (09:22 UTC)

Prognoză

Raportul a fost făcut în urmă cu 4 ore și 22 de minute, la 05:00 UTC
Prognoză valabilă de la 24 ora 06 UTC la 25 ora 06 UTC
Vânt 6 kt de la Nord/Nord-vest
Vizibilitate: 9000 m
Nori împrăștiați la o înălțime de 2000 picior
Nori fragmentați la o înălțime de 1800 picior
averse de ploaie,

TAF: NVSL 240500Z 2406/2506 34006KT 9999 SCT020 INTER 2406/2412 9000 SHRA BKN018

Observații și prognoze meteo pentru peste 4.000 de aeroporturi (rapoarte METAR și TAF).

Stațiile disponibile sunt reprezentate pe hartă prin puncte galbene și roșii.

Țineți indicatorul mouse-ului pe punctul dorit pentru a vedea denumirea stației.

Apoi, faceți clic pentru a vedea observațiile și prognozele meteorologice.

Pentru a schimba harta: Pentru mărire, faceți clic pe butoanele verzi cu cruce neagră; pentru micșorare, pe butonul verde cu o liniuță; pentru hărți învecinate, pe săgețile verzi.


METAR-TAF: